createdAt,value
2023-01-21T00:01:20.040Z,31.23
2023-01-21T00:03:47.568Z,41.90
2023-01-21T00:06:15.537Z,34.57
2023-01-21T00:08:43.436Z,31.93
2023-01-21T00:11:12.699Z,27.80
2023-01-21T00:13:40.384Z,38.30
2023-01-21T00:16:08.416Z,33.53
2023-01-21T00:18:36.073Z,31.80
2023-01-21T00:21:03.705Z,26.23
2023-01-21T00:23:31.171Z,40.10
2023-01-21T00:26:02.687Z,29.00
2023-01-21T00:28:30.789Z,30.53
2023-01-21T00:30:59.072Z,41.87
2023-01-21T00:33:26.984Z,29.17
2023-01-21T00:36:07.911Z,29.20
2023-01-21T00:38:35.723Z,42.50
2023-01-21T00:41:07.316Z,34.67
2023-01-21T00:43:35.098Z,45.07
2023-01-21T00:46:02.675Z,22.47
2023-01-21T00:48:30.217Z,20.57
2023-01-21T00:50:58.058Z,34.87
2023-01-21T00:53:25.798Z,30.23
2023-01-21T00:55:55.377Z,42.33
2023-01-21T00:58:27.316Z,29.63
2023-01-21T01:01:03.460Z,35.70
2023-01-21T01:03:31.459Z,28.43
2023-01-21T01:06:06.336Z,36.57
2023-01-21T01:08:34.179Z,33.40
2023-01-21T01:11:03.011Z,43.03
2023-01-21T01:13:30.890Z,33.23
2023-01-21T01:15:58.484Z,45.30
2023-01-21T01:18:26.660Z,24.87
2023-01-21T01:20:54.171Z,40.27
2023-01-21T01:23:21.783Z,30.17
2023-01-21T01:25:56.025Z,45.03
2023-01-21T01:28:25.542Z,39.10
2023-01-21T01:30:53.133Z,30.10
2023-01-21T01:33:20.811Z,28.30
2023-01-21T01:35:48.946Z,26.93
2023-01-21T01:38:17.516Z,41.83
2023-01-21T01:40:44.993Z,24.10
2023-01-21T01:43:18.540Z,36.40
2023-01-21T01:45:47.955Z,28.00
2023-01-21T01:48:33.650Z,29.10
2023-01-21T01:51:04.204Z,21.17
2023-01-21T01:53:32.671Z,30.97
2023-01-21T01:56:00.570Z,41.70
2023-01-21T01:58:29.776Z,41.60
2023-01-21T02:00:57.664Z,41.83
2023-01-21T02:03:25.862Z,32.20
2023-01-21T02:05:53.866Z,42.90
2023-01-21T02:08:21.647Z,42.23
2023-01-21T02:10:49.139Z,30.70
2023-01-21T02:13:17.281Z,25.13
2023-01-21T02:15:56.767Z,30.20
2023-01-21T02:18:27.046Z,26.40
2023-01-21T02:21:14.803Z,37.23
2023-01-21T02:24:18.035Z,42.40
2023-01-21T02:27:07.974Z,28.47
2023-01-21T02:29:35.589Z,31.23
2023-01-21T02:32:09.263Z,31.67
2023-01-21T02:34:43.123Z,42.07
2023-01-21T02:37:17.048Z,33.37
2023-01-21T02:39:44.553Z,30.90
2023-01-21T02:42:38.404Z,43.60
2023-01-21T02:45:14.377Z,33.83
2023-01-21T02:47:50.381Z,23.00
2023-01-21T02:50:27.114Z,31.50
2023-01-21T02:52:58.769Z,29.60
2023-01-21T02:55:29.797Z,28.73
2023-01-21T02:58:00.791Z,43.97
2023-01-21T03:00:48.677Z,37.93
2023-01-21T03:03:22.504Z,26.83
2023-01-21T03:06:01.649Z,32.13
2023-01-21T03:08:33.046Z,18.37
2023-01-21T03:11:13.775Z,44.80
2023-01-21T03:13:50.080Z,32.83
2023-01-21T03:16:20.642Z,28.97
2023-01-21T03:18:50.518Z,33.43
2023-01-21T03:21:20.167Z,25.07
2023-01-21T03:23:49.405Z,31.60
2023-01-21T03:26:19.286Z,39.27
2023-01-21T03:28:49.258Z,28.53
2023-01-21T03:31:19.261Z,28.10
2023-01-21T03:33:48.717Z,32.40
2023-01-21T03:36:21.582Z,33.37
2023-01-21T03:38:50.573Z,30.67
2023-01-21T03:41:20.193Z,20.33
2023-01-21T03:43:47.864Z,24.47
2023-01-21T03:46:15.354Z,35.80
2023-01-21T03:48:55.469Z,27.10
2023-01-21T03:51:26.314Z,29.93
2023-01-21T03:53:57.643Z,36.80
2023-01-21T03:56:28.007Z,27.93
2023-01-21T03:58:55.651Z,30.80
2023-01-21T04:01:23.469Z,43.87
2023-01-21T04:03:50.970Z,33.50
2023-01-21T04:06:19.868Z,35.07
2023-01-21T04:08:47.755Z,32.00
2023-01-21T04:11:15.632Z,21.53
2023-01-21T04:13:43.429Z,33.87
2023-01-21T04:16:10.946Z,44.10
2023-01-21T04:18:38.467Z,31.37
2023-01-21T04:21:05.927Z,37.53
2023-01-21T04:23:33.395Z,39.13
2023-01-21T04:26:00.980Z,29.50
2023-01-21T04:28:28.522Z,35.17
2023-01-21T04:30:56.025Z,33.70
2023-01-21T04:33:23.547Z,30.17
2023-01-21T04:35:51.071Z,27.67
2023-01-21T04:38:18.643Z,31.50
2023-01-21T04:40:46.123Z,34.90
2023-01-21T04:43:13.650Z,43.50
2023-01-21T04:45:41.168Z,35.63
2023-01-21T04:48:08.694Z,31.70
2023-01-21T04:50:36.147Z,41.73
2023-01-21T04:53:03.714Z,47.70
2023-01-21T04:55:31.206Z,51.37
2023-01-21T04:57:58.770Z,50.33
2023-01-21T05:00:26.381Z,30.27
2023-01-21T05:02:53.941Z,32.43
2023-01-21T05:05:21.409Z,33.50
2023-01-21T05:07:48.949Z,51.97
2023-01-21T05:10:19.743Z,25.57
2023-01-21T05:12:47.310Z,18.10
2023-01-21T05:15:14.778Z,44.37
2023-01-21T05:17:42.334Z,41.27
2023-01-21T05:20:10.179Z,32.43
2023-01-21T05:22:37.743Z,29.77
2023-01-21T05:25:05.648Z,35.43
2023-01-21T05:27:33.248Z,43.97
2023-01-21T05:30:00.733Z,40.10
2023-01-21T05:32:28.347Z,33.67
2023-01-21T05:34:55.827Z,36.77
2023-01-21T05:37:23.372Z,40.87
2023-01-21T05:39:50.877Z,31.67
2023-01-21T05:42:18.396Z,33.10
2023-01-21T05:44:45.884Z,27.97
2023-01-21T05:47:13.506Z,38.17
2023-01-21T05:49:41.011Z,37.33
2023-01-21T05:52:08.822Z,31.87
2023-01-21T05:54:36.319Z,29.80
2023-01-21T05:57:03.898Z,36.43
2023-01-21T05:59:31.370Z,33.60
2023-01-21T06:01:58.878Z,35.87
2023-01-21T06:04:26.386Z,29.77
2023-01-21T06:06:53.964Z,45.13
2023-01-21T06:09:21.433Z,48.63
2023-01-21T06:11:48.949Z,49.97
2023-01-21T06:14:16.422Z,34.23
2023-01-21T06:16:43.914Z,36.43
2023-01-21T06:19:11.416Z,31.07
2023-01-21T06:21:38.926Z,51.97
2023-01-21T06:24:06.672Z,45.63
2023-01-21T06:26:34.136Z,43.60
2023-01-21T06:29:01.653Z,40.97
2023-01-21T06:31:29.326Z,30.63
2023-01-21T06:33:56.857Z,47.83
2023-01-21T06:36:24.328Z,52.53
2023-01-21T06:38:51.884Z,47.33
2023-01-21T06:41:19.332Z,54.90
2023-01-21T06:43:46.835Z,29.80
2023-01-21T06:46:14.367Z,52.40
2023-01-21T06:48:41.978Z,33.47
2023-01-21T06:51:09.512Z,51.73
2023-01-21T06:53:37.183Z,36.83
2023-01-21T06:56:04.771Z,34.53
2023-01-21T06:58:32.322Z,45.93
2023-01-21T07:00:59.841Z,45.60
2023-01-21T07:03:27.341Z,32.53
2023-01-21T07:05:54.796Z,49.07
2023-01-21T07:08:22.417Z,47.37
2023-01-21T07:10:49.902Z,32.13
2023-01-21T07:13:17.468Z,45.47
2023-01-21T07:15:44.946Z,47.63
2023-01-21T07:18:12.542Z,52.90
2023-01-21T07:20:40.902Z,37.00
2023-01-21T07:23:08.666Z,44.60
2023-01-21T07:25:36.210Z,31.10
2023-01-21T07:28:03.918Z,45.37
2023-01-21T07:30:31.601Z,48.43
2023-01-21T07:32:59.136Z,44.83
2023-01-21T07:35:26.637Z,41.70
2023-01-21T07:37:54.165Z,54.93
2023-01-21T07:40:21.614Z,54.47
2023-01-21T07:42:55.731Z,55.07
2023-01-21T07:45:23.771Z,40.00
2023-01-21T07:47:51.270Z,36.33
2023-01-21T07:50:18.825Z,53.70
2023-01-21T07:52:46.423Z,53.53
2023-01-21T07:55:14.003Z,47.70
2023-01-21T07:57:41.488Z,48.73
2023-01-21T08:00:09.265Z,50.90
2023-01-21T08:02:36.796Z,60.30
2023-01-21T08:05:04.447Z,52.83
2023-01-21T08:07:31.922Z,48.40
2023-01-21T08:09:59.615Z,34.50
2023-01-21T08:12:27.386Z,48.23
2023-01-21T08:14:55.039Z,30.83
2023-01-21T08:17:22.488Z,47.03
2023-01-21T08:19:50.048Z,49.50
2023-01-21T08:22:17.518Z,31.93
2023-01-21T08:24:45.024Z,57.30
2023-01-21T08:27:12.494Z,48.37
2023-01-21T08:29:40.039Z,40.23
2023-01-21T08:32:07.550Z,37.57
2023-01-21T08:34:35.109Z,58.13
2023-01-21T08:37:02.673Z,62.10
2023-01-21T08:39:30.211Z,41.17
2023-01-21T08:41:57.679Z,50.63
2023-01-21T08:44:25.379Z,57.77
2023-01-21T08:46:52.850Z,39.97
2023-01-21T08:49:20.423Z,37.73
2023-01-21T08:51:48.288Z,40.80
2023-01-21T08:54:17.860Z,60.63
2023-01-21T08:56:45.388Z,54.03
2023-01-21T08:59:12.864Z,39.17
2023-01-21T09:01:40.371Z,68.90
2023-01-21T09:04:08.090Z,40.90
2023-01-21T09:06:35.575Z,64.17
2023-01-21T09:09:03.134Z,66.77
2023-01-21T09:11:30.889Z,48.80
2023-01-21T09:13:58.438Z,57.90
2023-01-21T09:16:25.926Z,65.87
2023-01-21T09:18:53.414Z,60.27
2023-01-21T09:21:20.924Z,52.80
2023-01-21T09:23:48.724Z,64.60
2023-01-21T09:26:23.205Z,50.67
2023-01-21T09:28:54.911Z,67.30
2023-01-21T09:31:23.048Z,54.93
2023-01-21T09:33:53.193Z,66.47
2023-01-21T09:36:25.031Z,48.13
2023-01-21T09:38:52.716Z,59.03
2023-01-21T09:41:24.796Z,62.27
2023-01-21T09:43:56.861Z,48.73
2023-01-21T09:46:44.649Z,54.20
2023-01-21T09:49:15.625Z,51.67
2023-01-21T09:51:52.734Z,56.90
2023-01-21T09:54:28.669Z,51.57
2023-01-21T09:57:19.033Z,49.30
2023-01-21T10:00:01.813Z,47.37
2023-01-21T10:02:38.199Z,48.63
2023-01-21T10:05:11.719Z,42.83
2023-01-21T10:07:43.370Z,44.17
2023-01-21T10:10:21.455Z,57.43
2023-01-21T10:12:58.483Z,56.73
2023-01-21T10:15:25.950Z,43.67
2023-01-21T10:18:04.499Z,48.27
2023-01-21T10:20:40.965Z,51.43
2023-01-21T10:23:15.403Z,52.90
2023-01-21T10:25:42.882Z,45.80
2023-01-21T10:28:26.918Z,54.50
2023-01-21T10:31:02.243Z,48.00
2023-01-21T10:33:32.879Z,42.60
2023-01-21T10:36:03.484Z,52.63
2023-01-21T10:38:49.030Z,47.13
2023-01-21T10:41:25.449Z,49.07
2023-01-21T10:44:01.110Z,45.53
2023-01-21T10:46:34.393Z,47.00
2023-01-21T10:49:25.234Z,48.33
2023-01-21T10:52:06.078Z,48.97
2023-01-21T10:54:33.638Z,47.57
2023-01-21T10:57:24.488Z,51.90
2023-01-21T10:59:52.393Z,48.50
2023-01-21T11:02:26.940Z,56.53
2023-01-21T11:04:55.113Z,50.97
2023-01-21T11:07:22.758Z,50.67
2023-01-21T11:09:50.514Z,50.00
2023-01-21T11:12:19.307Z,48.10
2023-01-21T11:14:54.220Z,51.23
2023-01-21T11:17:32.916Z,39.93
2023-01-21T11:20:02.582Z,52.63
2023-01-21T11:22:31.329Z,35.00
2023-01-21T11:24:59.347Z,50.10
2023-01-21T11:27:34.485Z,54.77
2023-01-21T11:30:02.110Z,49.63
2023-01-21T11:32:30.630Z,39.57
2023-01-21T11:35:02.186Z,49.57
2023-01-21T11:37:30.678Z,52.13
2023-01-21T11:39:59.718Z,54.23
2023-01-21T11:42:27.798Z,50.90
2023-01-21T11:44:59.927Z,41.73
2023-01-21T11:47:36.256Z,47.80
2023-01-21T11:50:11.107Z,37.07
2023-01-21T11:52:38.745Z,53.33
2023-01-21T11:55:18.280Z,46.20
2023-01-21T11:57:49.823Z,46.97
2023-01-21T12:00:19.408Z,46.00
2023-01-21T12:02:49.831Z,46.63
2023-01-21T12:05:41.153Z,48.90
2023-01-21T12:08:14.846Z,40.73
2023-01-21T12:10:46.401Z,43.83
2023-01-21T12:13:19.694Z,40.70
2023-01-21T12:15:53.059Z,37.67
2023-01-21T12:18:26.806Z,34.77
2023-01-21T12:21:20.984Z,39.33
2023-01-21T12:24:07.264Z,35.73
2023-01-21T12:26:51.712Z,34.67
2023-01-21T12:29:32.476Z,39.33
2023-01-21T12:32:02.436Z,33.37
2023-01-21T12:34:34.217Z,36.43
2023-01-21T12:37:01.790Z,29.20
2023-01-21T12:39:30.059Z,31.00
2023-01-21T12:42:02.502Z,31.53
2023-01-21T12:44:33.228Z,29.47
2023-01-21T12:47:03.201Z,29.23
2023-01-21T12:49:46.163Z,32.87
2023-01-21T12:52:23.025Z,17.67
2023-01-21T12:54:59.259Z,34.37
2023-01-21T12:57:38.656Z,36.67
2023-01-21T13:00:13.846Z,31.33
2023-01-21T13:02:59.990Z,34.00
2023-01-21T13:05:35.841Z,32.00
2023-01-21T13:08:18.783Z,35.60
2023-01-21T13:10:48.693Z,36.30
2023-01-21T13:13:21.444Z,33.63
2023-01-21T13:15:51.394Z,35.17
2023-01-21T13:18:38.580Z,49.03
2023-01-21T13:21:23.848Z,33.50
2023-01-21T13:24:00.623Z,37.80
2023-01-21T13:26:28.117Z,22.83
2023-01-21T13:28:55.583Z,29.10
2023-01-21T13:31:32.941Z,25.03
2023-01-21T13:34:06.305Z,35.57
2023-01-21T13:36:52.740Z,36.60
2023-01-21T13:39:43.319Z,37.77
2023-01-21T13:42:21.244Z,37.77
2023-01-21T13:45:11.024Z,32.70
2023-01-21T13:47:57.377Z,31.30
2023-01-21T13:50:28.623Z,174.77
2023-01-21T13:52:59.301Z,96.73
2023-01-21T13:55:33.431Z,199.80
2023-01-21T13:58:02.647Z,162.93
2023-01-21T14:00:33.251Z,59.13
2023-01-21T14:03:06.965Z,90.73
2023-01-21T14:05:44.093Z,88.63
2023-01-21T14:08:20.103Z,89.47
2023-01-21T14:11:26.399Z,83.53
2023-01-21T14:14:00.080Z,73.53
2023-01-21T14:16:27.644Z,29.07
2023-01-21T14:19:03.948Z,39.83
2023-01-21T14:21:50.789Z,33.27
2023-01-21T14:24:24.544Z,41.20
2023-01-21T14:27:03.847Z,43.97
2023-01-21T14:29:44.058Z,46.40
2023-01-21T14:32:23.943Z,48.50
2023-01-21T14:35:00.342Z,62.77
2023-01-21T14:37:30.246Z,43.00
2023-01-21T14:40:00.630Z,30.40
2023-01-21T14:42:48.088Z,60.90
2023-01-21T14:45:17.716Z,32.33
2023-01-21T14:47:46.905Z,37.23
2023-01-21T14:50:33.136Z,41.80
2023-01-21T14:53:00.767Z,31.57
2023-01-21T14:55:29.367Z,53.30
2023-01-21T14:57:57.730Z,18.70
2023-01-21T15:00:35.778Z,24.30
2023-01-21T15:03:03.251Z,24.10
2023-01-21T15:05:34.177Z,16.57
2023-01-21T15:08:21.934Z,13.10
2023-01-21T15:11:06.834Z,12.10
2023-01-21T15:13:34.330Z,13.63
2023-01-21T15:16:16.733Z,17.43
2023-01-21T15:18:45.560Z,13.67
2023-01-21T15:21:31.968Z,18.10
2023-01-21T15:24:18.618Z,15.67
2023-01-21T15:27:04.935Z,14.57
2023-01-21T15:29:32.730Z,16.03
2023-01-21T15:32:18.973Z,12.40
2023-01-21T15:34:48.739Z,12.23
2023-01-21T15:37:23.426Z,14.93
2023-01-21T15:39:51.606Z,14.00
2023-01-21T15:42:22.124Z,15.93
2023-01-21T15:44:55.482Z,13.60
2023-01-21T15:47:35.063Z,23.40
2023-01-21T15:50:22.284Z,12.10
2023-01-21T15:52:57.115Z,22.57
2023-01-21T15:55:27.383Z,21.23
2023-01-21T15:58:06.844Z,20.23
2023-01-21T16:00:37.375Z,20.17
2023-01-21T16:03:23.786Z,16.30
2023-01-21T16:06:03.477Z,20.40
2023-01-21T16:08:39.132Z,20.73
2023-01-21T16:11:14.066Z,16.47
2023-01-21T16:13:54.209Z,15.77
2023-01-21T16:16:40.741Z,13.40
2023-01-21T16:19:13.306Z,29.23
2023-01-21T16:21:43.126Z,16.87
2023-01-21T16:24:15.937Z,18.23
2023-01-21T16:26:44.057Z,19.10
2023-01-21T16:29:12.395Z,12.07
2023-01-21T16:31:47.104Z,20.90
2023-01-21T16:34:14.745Z,15.17
2023-01-21T16:36:42.291Z,22.07
2023-01-21T16:39:10.510Z,19.80
2023-01-21T16:41:39.923Z,14.70
2023-01-21T16:44:15.986Z,16.93
2023-01-21T16:46:43.589Z,20.67
2023-01-21T16:49:15.417Z,25.27
2023-01-21T16:51:50.964Z,17.27
2023-01-21T16:54:18.519Z,23.47
2023-01-21T16:56:56.484Z,21.47
2023-01-21T16:59:40.615Z,18.93
2023-01-21T17:02:18.873Z,21.00
2023-01-21T17:04:46.653Z,18.33
2023-01-21T17:07:19.966Z,26.87
2023-01-21T17:09:54.154Z,17.23
2023-01-21T17:12:26.028Z,24.57
2023-01-21T17:14:56.102Z,25.30
2023-01-21T17:17:24.174Z,24.43
2023-01-21T17:19:51.719Z,22.43
2023-01-21T17:22:21.024Z,16.37
2023-01-21T17:24:57.489Z,14.97
2023-01-21T17:27:25.189Z,18.77
2023-01-21T17:29:52.921Z,12.07
2023-01-21T17:32:28.281Z,9.20
2023-01-21T17:35:11.295Z,13.13
2023-01-21T17:37:57.606Z,17.40
2023-01-21T17:40:46.484Z,13.60
2023-01-21T17:43:21.999Z,10.97
2023-01-21T17:45:50.478Z,14.83
2023-01-21T17:48:23.303Z,17.03
2023-01-21T17:50:50.998Z,11.03
2023-01-21T17:53:28.249Z,17.53
2023-01-21T17:55:58.446Z,15.73
2023-01-21T17:58:31.889Z,18.00
2023-01-21T18:01:03.559Z,22.97
2023-01-21T18:03:31.100Z,16.27
2023-01-21T18:05:58.633Z,18.40
2023-01-21T18:08:26.174Z,15.77
2023-01-21T18:10:53.698Z,17.73
2023-01-21T18:13:22.297Z,21.87
2023-01-21T18:15:49.862Z,18.50
2023-01-21T18:18:17.473Z,19.20
2023-01-21T18:20:46.253Z,18.57
2023-01-21T18:23:14.133Z,19.73
2023-01-21T18:25:42.003Z,19.37
2023-01-21T18:28:17.711Z,19.50
2023-01-21T18:30:45.492Z,20.57
2023-01-21T18:33:13.487Z,22.13
2023-01-21T18:35:43.641Z,18.83
2023-01-21T18:38:22.045Z,18.60
2023-01-21T18:40:49.540Z,16.97
2023-01-21T18:43:17.148Z,22.40
2023-01-21T18:45:44.751Z,20.40
2023-01-21T18:48:14.233Z,21.87
2023-01-21T18:50:41.820Z,23.10
2023-01-21T18:53:09.419Z,23.47
2023-01-21T18:55:37.005Z,25.37
2023-01-21T18:58:04.791Z,23.83
2023-01-21T19:00:33.519Z,26.80
2023-01-21T19:03:01.544Z,23.10
2023-01-21T19:05:34.977Z,24.70
2023-01-21T19:08:02.809Z,22.90
2023-01-21T19:10:30.336Z,23.10
2023-01-21T19:12:57.963Z,23.33
2023-01-21T19:15:27.609Z,18.40
2023-01-21T19:17:55.875Z,23.93
2023-01-21T19:20:24.649Z,27.77
2023-01-21T19:22:52.847Z,28.10
2023-01-21T19:25:21.666Z,18.07
2023-01-21T19:27:53.482Z,23.20
2023-01-21T19:30:21.106Z,26.17
2023-01-21T19:32:49.243Z,21.27
2023-01-21T19:35:18.011Z,27.90
2023-01-21T19:37:46.384Z,22.00
2023-01-21T19:40:18.442Z,26.23
2023-01-21T19:42:46.390Z,21.90
2023-01-21T19:45:14.869Z,26.83
2023-01-21T19:47:43.716Z,20.63
2023-01-21T19:50:18.776Z,25.27
2023-01-21T19:52:46.905Z,22.83
2023-01-21T19:55:18.649Z,29.17
2023-01-21T19:57:47.041Z,26.67
2023-01-21T20:00:20.444Z,28.70
2023-01-21T20:02:48.173Z,30.07
2023-01-21T20:05:15.746Z,27.73
2023-01-21T20:07:44.882Z,27.17
2023-01-21T20:10:17.083Z,31.17
2023-01-21T20:12:45.062Z,33.17
2023-01-21T20:15:17.028Z,33.97
2023-01-21T20:17:46.550Z,39.83
2023-01-21T20:20:15.218Z,33.90
2023-01-21T20:22:42.735Z,36.10
2023-01-21T20:25:14.080Z,31.10
2023-01-21T20:27:41.859Z,31.83
2023-01-21T20:30:38.854Z,38.40
2023-01-21T20:33:06.430Z,34.93
2023-01-21T20:35:33.945Z,39.50
2023-01-21T20:38:01.470Z,37.87
2023-01-21T20:40:30.078Z,36.73
2023-01-21T20:42:58.258Z,38.10
2023-01-21T20:45:30.506Z,37.90
2023-01-21T20:47:59.976Z,43.07
2023-01-21T20:50:32.251Z,35.77
2023-01-21T20:53:00.193Z,40.63
2023-01-21T20:55:28.633Z,42.20
2023-01-21T20:57:56.191Z,44.67
2023-01-21T21:00:25.270Z,42.57
2023-01-21T21:02:53.470Z,37.07
2023-01-21T21:05:21.043Z,33.80
2023-01-21T21:07:48.593Z,37.50
2023-01-21T21:10:19.362Z,40.83
2023-01-21T21:12:47.327Z,39.33
2023-01-21T21:15:15.332Z,34.80
2023-01-21T21:17:43.653Z,38.77
2023-01-21T21:20:30.507Z,41.10
2023-01-21T21:22:58.097Z,36.77
2023-01-21T21:25:30.111Z,42.93
2023-01-21T21:27:57.733Z,46.40
2023-01-21T21:30:29.406Z,33.83
2023-01-21T21:32:57.715Z,42.33
2023-01-21T21:35:27.019Z,42.43
2023-01-21T21:37:55.499Z,40.90
2023-01-21T21:40:24.056Z,42.43
2023-01-21T21:42:51.857Z,35.23
2023-01-21T21:45:19.685Z,32.63
2023-01-21T21:47:47.403Z,34.23
2023-01-21T21:50:15.081Z,36.03
2023-01-21T21:52:42.629Z,29.30
2023-01-21T21:55:10.360Z,28.27
2023-01-21T21:57:37.944Z,40.87
2023-01-21T22:00:05.670Z,32.23
2023-01-21T22:02:33.477Z,37.57
2023-01-21T22:05:01.066Z,38.73
2023-01-21T22:07:28.650Z,39.40
2023-01-21T22:09:56.160Z,38.30
2023-01-21T22:12:23.664Z,39.57
2023-01-21T22:14:51.138Z,39.57
2023-01-21T22:17:18.682Z,37.50
2023-01-21T22:19:46.206Z,39.80
2023-01-21T22:22:13.734Z,35.17
2023-01-21T22:24:41.240Z,39.03
2023-01-21T22:27:08.813Z,37.53
2023-01-21T22:29:36.439Z,29.70
2023-01-21T22:32:04.176Z,37.53
2023-01-21T22:34:33.761Z,34.57
2023-01-21T22:37:01.331Z,40.47
2023-01-21T22:39:28.800Z,37.63
2023-01-21T22:41:56.394Z,32.63
2023-01-21T22:44:23.855Z,33.83
2023-01-21T22:46:51.436Z,33.40
2023-01-21T22:49:19.050Z,34.43
2023-01-21T22:51:46.620Z,39.37
2023-01-21T22:54:14.150Z,25.07
2023-01-21T22:56:51.633Z,21.33
2023-01-21T22:59:20.481Z,41.30
2023-01-21T23:01:48.016Z,35.07
2023-01-21T23:04:15.605Z,25.90
2023-01-21T23:06:43.139Z,26.40
2023-01-21T23:09:13.271Z,32.60
2023-01-21T23:11:40.803Z,17.83
2023-01-21T23:14:09.574Z,26.50
2023-01-21T23:16:37.180Z,31.10
2023-01-21T23:19:04.715Z,31.37
2023-01-21T23:21:32.243Z,21.80
2023-01-21T23:23:59.725Z,39.37
2023-01-21T23:26:30.322Z,26.10
2023-01-21T23:28:58.576Z,39.60
2023-01-21T23:31:26.367Z,37.97
2023-01-21T23:33:55.045Z,32.57
2023-01-21T23:36:22.656Z,34.87
2023-01-21T23:38:50.167Z,23.50
2023-01-21T23:41:17.802Z,27.97
2023-01-21T23:43:45.382Z,31.03
2023-01-21T23:46:14.855Z,32.17
2023-01-21T23:48:42.875Z,31.33
2023-01-21T23:51:11.969Z,24.97
2023-01-21T23:53:39.592Z,24.83
2023-01-21T23:56:09.299Z,24.30
2023-01-21T23:58:36.956Z,35.27
